Perry Square, Pennsylvania
Current Conditions -  °F | °C
As of 2:51 PM on Sunday 23 Nov 2014 (Local Time) from KERI Reporting Station
Clear Clear  
Wind Chill: 57°   Ceiling: Unl
Heat Index: 57°   Visibility: 10mi
Dew Point: 40°   Wind: 12mph
Humidity: 53%   Direction: 160°SSE
Pressure: 29.87"   Gusts: NA
Location:  42.1361°N, 80.0826°W
Report Text: KERI 231951Z 16010KT 10SM CLR 14/04 A2987 RMK AO2 SLP116 T01390044
Loading
Personal Weather Stations






























Interactive Weather Map New forecast layout! Learn more

10-Day Weather Forecast

Advertisements
Track Severe Weather on mobile